createdAt,value
2019-03-12T00:02:09.691Z,2.80
2019-03-12T00:04:37.173Z,2.80
2019-03-12T00:07:04.761Z,2.80
2019-03-12T00:09:32.266Z,2.70
2019-03-12T00:11:59.789Z,2.60
2019-03-12T00:14:27.325Z,2.50
2019-03-12T00:16:54.824Z,2.40
2019-03-12T00:19:22.323Z,2.40
2019-03-12T00:21:49.857Z,2.30
2019-03-12T00:24:17.431Z,2.30
2019-03-12T00:26:44.928Z,2.30
2019-03-12T00:29:12.435Z,2.20
2019-03-12T00:31:39.982Z,2.10
2019-03-12T00:34:07.472Z,2.00
2019-03-12T00:36:34.975Z,2.00
2019-03-12T00:39:03.694Z,1.90
2019-03-12T00:41:31.253Z,1.90
2019-03-12T00:43:58.827Z,1.90
2019-03-12T00:46:27.229Z,1.80
2019-03-12T00:48:54.857Z,1.80
2019-03-12T00:51:22.367Z,1.80
2019-03-12T00:53:49.926Z,1.90
2019-03-12T00:56:17.461Z,1.70
2019-03-12T00:58:44.980Z,1.70
2019-03-12T01:01:12.465Z,1.70
2019-03-12T01:03:40.007Z,1.70
2019-03-12T01:06:07.524Z,1.60
2019-03-12T01:08:35.013Z,1.70
2019-03-12T01:11:02.548Z,1.60
2019-03-12T01:13:30.114Z,1.60
2019-03-12T01:15:57.657Z,1.60
2019-03-12T01:18:25.161Z,1.50
2019-03-12T01:20:52.670Z,1.50
2019-03-12T01:23:20.204Z,1.40
2019-03-12T01:25:47.729Z,1.40
2019-03-12T01:28:15.217Z,1.30
2019-03-12T01:30:42.767Z,1.30
2019-03-12T01:33:10.290Z,1.40
2019-03-12T01:35:37.808Z,1.30
2019-03-12T01:38:05.373Z,1.20
2019-03-12T01:40:32.885Z,1.20
2019-03-12T01:43:00.385Z,1.20
2019-03-12T01:45:27.924Z,1.00
2019-03-12T01:47:55.429Z,1.10
2019-03-12T01:50:22.931Z,1.00
2019-03-12T01:52:50.478Z,1.00
2019-03-12T01:55:18.063Z,1.00
2019-03-12T01:57:45.565Z,1.00
2019-03-12T02:00:14.313Z,1.00
2019-03-12T02:02:41.801Z,1.00
2019-03-12T02:05:09.439Z,0.90
2019-03-12T02:07:36.929Z,0.90
2019-03-12T02:10:04.913Z,0.90
2019-03-12T02:12:32.468Z,0.90
2019-03-12T02:14:59.965Z,0.80
2019-03-12T02:17:27.483Z,0.80
2019-03-12T02:19:55.016Z,0.80
2019-03-12T02:22:22.525Z,0.70
2019-03-12T02:24:52.880Z,0.90
2019-03-12T02:27:19.377Z,0.80
2019-03-12T02:29:46.895Z,0.70
2019-03-12T02:32:14.394Z,0.60
2019-03-12T02:34:41.935Z,0.80
2019-03-12T02:37:09.438Z,0.50
2019-03-12T02:39:36.939Z,0.60
2019-03-12T02:42:04.464Z,0.50
2019-03-12T02:44:31.968Z,0.50
2019-03-12T02:46:59.458Z,0.70
2019-03-12T02:49:27.005Z,0.40
2019-03-12T02:51:54.508Z,0.40
2019-03-12T02:54:22.018Z,0.50
2019-03-12T02:56:49.545Z,0.50
2019-03-12T02:59:17.410Z,0.30
2019-03-12T03:01:44.951Z,0.20
2019-03-12T03:04:12.437Z,0.30
2019-03-12T03:07:11.742Z,0.30
2019-03-12T03:09:39.237Z,0.30
2019-03-12T03:12:06.824Z,0.20
2019-03-12T03:14:40.348Z,0.40
2019-03-12T03:17:10.154Z,0.20
2019-03-12T03:19:37.686Z,0.20
2019-03-12T03:22:05.174Z,0.10
2019-03-12T03:24:32.759Z,0.30
2019-03-12T03:27:00.256Z,0.20
2019-03-12T03:29:27.757Z,0.20
2019-03-12T03:31:55.313Z,0.30
2019-03-12T03:34:27.732Z,0.40
2019-03-12T03:36:52.119Z,0.60
2019-03-12T03:39:19.628Z,0.70
2019-03-12T03:41:47.130Z,1.00
2019-03-12T03:44:14.664Z,1.00
2019-03-12T03:46:42.182Z,1.00
2019-03-12T03:49:09.710Z,1.00
2019-03-12T03:51:37.229Z,1.10
2019-03-12T03:54:04.796Z,1.30
2019-03-12T03:56:32.346Z,1.10
2019-03-12T03:58:59.808Z,1.10
2019-03-12T04:01:27.328Z,1.30
2019-03-12T04:03:54.828Z,1.40
2019-03-12T04:06:22.361Z,1.20
2019-03-12T04:08:49.876Z,1.30
2019-03-12T04:11:17.397Z,1.10
2019-03-12T04:13:44.907Z,1.20
2019-03-12T04:16:12.737Z,1.10
2019-03-12T04:18:40.243Z,1.00
2019-03-12T04:21:07.740Z,1.00
2019-03-12T04:23:35.310Z,1.00
2019-03-12T04:26:02.810Z,1.00
2019-03-12T04:28:30.355Z,1.00
2019-03-12T04:30:57.855Z,1.00
2019-03-12T04:34:08.376Z,1.00
2019-03-12T04:36:35.882Z,1.00
2019-03-12T04:39:05.072Z,1.10
2019-03-12T04:41:32.607Z,1.00
2019-03-12T04:44:00.094Z,0.90
2019-03-12T04:46:27.652Z,1.10
2019-03-12T04:48:55.170Z,0.90
2019-03-12T04:51:22.668Z,0.90
2019-03-12T04:53:50.196Z,1.10
2019-03-12T04:56:17.680Z,0.90
2019-03-12T04:58:45.228Z,0.80
2019-03-12T05:01:12.728Z,0.80
2019-03-12T05:03:40.232Z,0.80
2019-03-12T05:06:07.788Z,1.00
2019-03-12T05:08:35.292Z,0.90
2019-03-12T05:11:02.799Z,0.80
2019-03-12T05:13:30.338Z,0.90
2019-03-12T05:15:57.885Z,0.80
2019-03-12T05:18:25.400Z,0.80
2019-03-12T05:20:52.960Z,0.80
2019-03-12T05:23:20.458Z,0.90
2019-03-12T05:25:47.961Z,1.00
2019-03-12T05:28:15.506Z,1.00
2019-03-12T05:30:43.086Z,0.90
2019-03-12T05:33:10.593Z,1.00
2019-03-12T05:35:38.126Z,1.10
2019-03-12T05:38:05.647Z,1.30
2019-03-12T05:40:33.206Z,1.30
2019-03-12T05:43:00.699Z,1.30
2019-03-12T05:45:28.191Z,1.30
2019-03-12T05:47:55.738Z,1.50
2019-03-12T05:50:23.244Z,1.40
2019-03-12T05:52:50.737Z,1.50
2019-03-12T05:55:18.288Z,1.40
2019-03-12T05:57:45.837Z,1.60
2019-03-12T06:00:13.676Z,1.60
2019-03-12T06:02:41.197Z,1.50
2019-03-12T06:05:08.744Z,1.60
2019-03-12T06:07:36.264Z,1.70
2019-03-12T06:10:04.759Z,1.70
2019-03-12T06:12:32.340Z,1.70
2019-03-12T06:14:59.840Z,1.80
2019-03-12T06:17:27.338Z,1.80
2019-03-12T06:19:54.862Z,1.70
2019-03-12T06:22:22.392Z,1.70
2019-03-12T06:24:49.910Z,1.70
2019-03-12T06:27:18.355Z,1.60
2019-03-12T06:29:45.987Z,1.60
2019-03-12T06:32:27.331Z,1.60
2019-03-12T06:35:09.947Z,1.70
2019-03-12T06:37:54.487Z,1.70
2019-03-12T06:40:41.518Z,1.90
2019-03-12T06:43:20.096Z,2.00
2019-03-12T06:46:25.436Z,2.20
2019-03-12T06:49:00.731Z,2.20
2019-03-12T06:51:53.694Z,2.20
2019-03-12T06:54:43.756Z,2.30
2019-03-12T06:57:49.260Z,2.30
2019-03-12T07:00:45.306Z,2.40
2019-03-12T07:03:35.264Z,2.40
2019-03-12T07:06:30.234Z,2.70
2019-03-12T07:09:10.914Z,2.60
2019-03-12T07:11:43.162Z,2.70
2019-03-12T07:14:30.332Z,2.90
2019-03-12T07:17:02.160Z,3.10
2019-03-12T07:19:52.220Z,3.10
2019-03-12T07:22:54.348Z,3.30
2019-03-12T07:25:46.872Z,3.30
2019-03-12T07:28:24.941Z,3.30
2019-03-12T07:31:12.155Z,3.40
2019-03-12T07:33:59.248Z,3.60
2019-03-12T07:36:37.622Z,3.70
2019-03-12T07:39:31.698Z,3.70
2019-03-12T07:42:18.728Z,3.50
2019-03-12T07:45:11.352Z,3.60
2019-03-12T07:47:56.904Z,3.80
2019-03-12T07:50:35.068Z,4.10
2019-03-12T07:53:20.988Z,4.70
2019-03-12T07:56:20.358Z,5.20
2019-03-12T07:59:08.858Z,5.70
2019-03-12T08:01:51.097Z,5.60
2019-03-12T08:04:44.132Z,5.50
2019-03-12T08:07:21.474Z,5.10
2019-03-12T08:10:26.787Z,5.00
2019-03-12T08:13:12.048Z,4.90
2019-03-12T08:15:46.346Z,4.80
2019-03-12T08:18:35.371Z,4.90
2019-03-12T08:21:33.293Z,5.30
2019-03-12T08:24:26.990Z,5.50
2019-03-12T08:27:05.667Z,5.50
2019-03-12T08:29:40.002Z,5.80
2019-03-12T08:32:34.038Z,7.00
2019-03-12T08:35:21.080Z,7.30
2019-03-12T08:37:59.256Z,6.80
2019-03-12T08:40:52.362Z,6.60
2019-03-12T08:43:26.281Z,6.10
2019-03-12T08:46:18.326Z,5.50
2019-03-12T08:48:52.224Z,5.20
2019-03-12T08:51:42.127Z,5.60
2019-03-12T08:54:22.452Z,6.10
2019-03-12T08:57:07.110Z,6.00
2019-03-12T08:59:52.699Z,5.80
2019-03-12T09:02:31.155Z,5.50
2019-03-12T09:05:18.100Z,5.10
2019-03-12T09:08:07.958Z,4.70
2019-03-12T09:10:54.990Z,4.40
2019-03-12T09:13:45.054Z,4.30
2019-03-12T09:16:18.226Z,4.30
2019-03-12T09:18:57.399Z,4.30
2019-03-12T09:21:50.516Z,4.30
2019-03-12T09:24:55.550Z,4.50
2019-03-12T09:27:48.380Z,4.50
2019-03-12T09:30:33.927Z,4.50
2019-03-12T09:33:29.788Z,4.40
2019-03-12T09:36:12.495Z,4.30
2019-03-12T09:38:51.550Z,4.10
2019-03-12T09:41:37.274Z,4.10
2019-03-12T09:44:22.462Z,4.00
2019-03-12T09:47:11.948Z,4.20
2019-03-12T09:49:53.778Z,4.50
2019-03-12T09:52:29.382Z,4.90
2019-03-12T09:55:12.862Z,5.00
2019-03-12T09:57:49.282Z,4.90
2019-03-12T10:00:24.639Z,4.70
2019-03-12T10:03:11.667Z,4.50
2019-03-12T10:05:46.152Z,4.50
2019-03-12T10:08:33.192Z,4.20
2019-03-12T10:11:26.390Z,4.10
2019-03-12T10:14:13.405Z,4.10
2019-03-12T10:16:55.312Z,4.10
2019-03-12T10:19:33.766Z,4.10
2019-03-12T10:22:19.410Z,3.90
2019-03-12T10:25:05.568Z,3.90
2019-03-12T10:27:55.550Z,3.90
2019-03-12T10:30:30.814Z,4.10
2019-03-12T10:33:20.810Z,4.40
2019-03-12T10:36:02.428Z,4.70
2019-03-12T10:39:11.422Z,5.00
2019-03-12T10:41:53.082Z,5.30
2019-03-12T10:44:25.725Z,5.30
2019-03-12T10:47:01.336Z,5.10
2019-03-12T10:49:37.332Z,4.90
2019-03-12T10:51:58.230Z,4.90
2019-03-12T10:54:25.720Z,4.90
2019-03-12T10:56:53.259Z,5.00
2019-03-12T10:59:20.864Z,4.90
2019-03-12T11:01:48.352Z,4.90
2019-03-12T11:04:15.874Z,4.90
2019-03-12T11:06:43.382Z,5.00
2019-03-12T11:09:10.978Z,5.00
2019-03-12T11:11:38.468Z,5.00
2019-03-12T11:14:06.056Z,5.00
2019-03-12T11:16:33.617Z,5.20
2019-03-12T11:19:01.135Z,5.30
2019-03-12T11:21:28.650Z,5.40
2019-03-12T11:23:56.136Z,5.30
2019-03-12T11:26:23.703Z,5.30
2019-03-12T11:28:51.340Z,5.20
2019-03-12T11:31:18.834Z,5.30
2019-03-12T11:33:46.359Z,5.30
2019-03-12T11:36:13.854Z,5.20
2019-03-12T11:38:41.365Z,5.30
2019-03-12T11:41:08.986Z,5.10
2019-03-12T11:43:36.466Z,5.20
2019-03-12T11:46:04.466Z,5.10
2019-03-12T11:48:31.962Z,4.90
2019-03-12T11:50:59.524Z,5.00
2019-03-12T11:53:26.973Z,5.10
2019-03-12T11:55:54.469Z,5.20
2019-03-12T11:58:21.998Z,5.30
2019-03-12T12:00:55.046Z,5.40
2019-03-12T12:03:22.527Z,5.50
2019-03-12T12:05:50.061Z,5.40
2019-03-12T12:08:17.555Z,5.50
2019-03-12T12:10:45.133Z,5.30
2019-03-12T12:13:12.661Z,5.30
2019-03-12T12:15:40.164Z,5.40
2019-03-12T12:18:07.655Z,5.40
2019-03-12T12:20:35.198Z,5.40
2019-03-12T12:23:02.724Z,5.60
2019-03-12T12:25:30.239Z,5.70
2019-03-12T12:27:57.783Z,5.90
2019-03-12T12:30:25.253Z,6.00
2019-03-12T12:32:52.940Z,6.20
2019-03-12T12:35:20.486Z,6.50
2019-03-12T12:37:47.986Z,6.50
2019-03-12T12:40:15.722Z,6.50
2019-03-12T12:42:43.435Z,6.60
2019-03-12T12:45:13.720Z,6.60
2019-03-12T12:47:41.250Z,6.50
2019-03-12T12:50:09.351Z,6.20
2019-03-12T12:52:37.060Z,5.80
2019-03-12T12:55:04.634Z,5.50
2019-03-12T12:57:32.151Z,5.40
2019-03-12T12:59:59.863Z,5.40
2019-03-12T13:02:27.394Z,5.50
2019-03-12T13:04:54.898Z,5.70
2019-03-12T13:07:22.529Z,5.80
2019-03-12T13:09:50.072Z,5.90
2019-03-12T13:12:17.611Z,6.00
2019-03-12T13:14:45.192Z,6.10
2019-03-12T13:17:12.755Z,6.10
2019-03-12T13:19:40.367Z,6.10
2019-03-12T13:22:10.323Z,6.00
2019-03-12T13:24:37.859Z,6.10
2019-03-12T13:27:05.398Z,6.10
2019-03-12T13:29:32.995Z,6.00
2019-03-12T13:32:12.855Z,5.80
2019-03-12T13:34:30.695Z,5.70
2019-03-12T13:36:58.247Z,5.80
2019-03-12T13:39:25.901Z,5.90
2019-03-12T13:41:53.618Z,6.00
2019-03-12T13:44:21.346Z,6.00
2019-03-12T13:46:48.874Z,6.00
2019-03-12T13:49:16.395Z,5.90
2019-03-12T13:51:43.941Z,6.00
2019-03-12T13:54:11.498Z,6.00
2019-03-12T13:56:39.064Z,6.00
2019-03-12T13:59:06.612Z,6.10
2019-03-12T14:01:34.116Z,6.10
2019-03-12T14:04:10.451Z,6.20
2019-03-12T14:06:30.973Z,6.10
2019-03-12T14:08:58.592Z,6.10
2019-03-12T14:11:26.013Z,6.10
2019-03-12T14:13:53.507Z,6.10
2019-03-12T14:16:21.266Z,6.20
2019-03-12T14:18:48.785Z,6.20
2019-03-12T14:21:16.429Z,6.00
2019-03-12T14:23:50.549Z,6.00
2019-03-12T14:26:18.083Z,5.90
2019-03-12T14:28:45.632Z,5.80
2019-03-12T14:31:13.131Z,5.70
2019-03-12T14:33:40.815Z,5.70
2019-03-12T14:36:08.469Z,5.70
2019-03-12T14:38:35.945Z,5.70
2019-03-12T14:41:03.709Z,5.70
2019-03-12T14:43:31.273Z,5.80
2019-03-12T14:45:58.801Z,5.80
2019-03-12T14:48:43.803Z,5.80
2019-03-12T14:51:29.744Z,5.80
2019-03-12T14:53:57.481Z,5.70
2019-03-12T14:56:27.383Z,5.70
2019-03-12T14:58:55.103Z,5.60
2019-03-12T15:01:22.679Z,5.50
2019-03-12T15:03:50.218Z,5.60
2019-03-12T15:06:17.733Z,5.60
2019-03-12T15:08:45.335Z,5.60
2019-03-12T15:11:12.880Z,5.70
2019-03-12T15:13:40.432Z,5.80
2019-03-12T15:16:08.039Z,6.00
2019-03-12T15:18:35.594Z,6.00
2019-03-12T15:21:03.124Z,5.90
2019-03-12T15:23:30.688Z,5.90
2019-03-12T15:25:58.212Z,5.80
2019-03-12T15:28:25.753Z,5.80
2019-03-12T15:30:53.331Z,5.70
2019-03-12T15:33:20.860Z,5.70
2019-03-12T15:35:48.439Z,5.60
2019-03-12T15:38:15.961Z,5.60
2019-03-12T15:40:43.517Z,5.60
2019-03-12T15:43:11.063Z,5.50
2019-03-12T15:45:38.637Z,5.50
2019-03-12T15:48:07.102Z,5.40
2019-03-12T15:50:34.908Z,5.40
2019-03-12T15:53:02.578Z,5.40
2019-03-12T15:55:30.736Z,5.40
2019-03-12T15:57:58.304Z,5.30
2019-03-12T16:00:25.856Z,5.40
2019-03-12T16:02:53.453Z,5.30
2019-03-12T16:05:20.987Z,5.30
2019-03-12T16:07:48.937Z,5.20
2019-03-12T16:10:19.249Z,5.20
2019-03-12T16:12:45.763Z,5.10
2019-03-12T16:15:13.813Z,5.10
2019-03-12T16:17:43.919Z,5.10
2019-03-12T16:20:11.559Z,5.10
2019-03-12T16:22:39.069Z,5.00
2019-03-12T16:25:06.907Z,5.00
2019-03-12T16:27:34.719Z,4.90
2019-03-12T16:30:02.437Z,4.90
2019-03-12T16:32:29.944Z,4.80
2019-03-12T16:34:57.480Z,4.80
2019-03-12T16:37:28.965Z,4.70
2019-03-12T16:39:56.758Z,4.60
2019-03-12T16:42:34.655Z,4.60
2019-03-12T16:44:53.786Z,4.60
2019-03-12T16:47:21.373Z,4.40
2019-03-12T16:49:48.915Z,4.40
2019-03-12T16:52:16.581Z,4.30
2019-03-12T16:54:44.118Z,4.20
2019-03-12T16:57:12.259Z,4.10
2019-03-12T16:59:39.947Z,4.10
2019-03-12T17:02:07.583Z,4.00
2019-03-12T17:04:35.255Z,4.10
2019-03-12T17:07:02.835Z,4.10
2019-03-12T17:09:30.508Z,4.20
2019-03-12T17:11:58.185Z,4.20
2019-03-12T17:14:38.050Z,4.30
2019-03-12T17:16:55.353Z,4.30
2019-03-12T17:19:22.951Z,4.30
2019-03-12T17:21:50.558Z,4.30
2019-03-12T17:24:18.178Z,4.30
2019-03-12T17:26:45.753Z,4.30
2019-03-12T17:29:13.443Z,4.30
2019-03-12T17:31:41.022Z,4.20
2019-03-12T17:34:08.587Z,4.10
2019-03-12T17:36:36.158Z,4.10
2019-03-12T17:39:06.186Z,4.00
2019-03-12T17:41:33.778Z,3.90
2019-03-12T17:44:01.355Z,3.90
2019-03-12T17:46:28.890Z,3.90
2019-03-12T17:48:56.883Z,3.90
2019-03-12T17:51:24.511Z,3.80
2019-03-12T17:53:58.527Z,3.70
2019-03-12T17:56:26.143Z,3.50
2019-03-12T17:58:53.701Z,3.50
2019-03-12T18:01:29.322Z,3.40
2019-03-12T18:03:50.702Z,3.40
2019-03-12T18:06:18.211Z,3.30
2019-03-12T18:08:45.787Z,3.30
2019-03-12T18:11:13.356Z,3.30
2019-03-12T18:13:40.980Z,3.20
2019-03-12T18:16:08.564Z,3.10
2019-03-12T18:18:36.109Z,3.10
2019-03-12T18:21:03.679Z,3.00
2019-03-12T18:23:31.183Z,3.00
2019-03-12T18:25:59.453Z,2.90
2019-03-12T18:28:26.973Z,2.80
2019-03-12T18:30:54.521Z,2.80
2019-03-12T18:33:22.090Z,2.70
2019-03-12T18:35:49.607Z,2.70
2019-03-12T18:38:17.126Z,2.70
2019-03-12T18:40:44.679Z,2.60
2019-03-12T18:43:14.666Z,2.60
2019-03-12T18:45:41.625Z,2.50
2019-03-12T18:48:10.280Z,2.50
2019-03-12T18:50:48.712Z,2.40
2019-03-12T18:53:17.415Z,2.40
2019-03-12T18:56:02.057Z,2.40
2019-03-12T18:58:31.101Z,2.30
2019-03-12T19:01:01.345Z,2.30
2019-03-12T19:03:28.879Z,2.20
2019-03-12T19:05:56.422Z,2.20
2019-03-12T19:08:23.947Z,2.30
2019-03-12T19:10:51.526Z,2.10
2019-03-12T19:13:19.037Z,2.10
2019-03-12T19:15:46.537Z,2.10
2019-03-12T19:18:14.098Z,2.10
2019-03-12T19:20:41.663Z,2.10
2019-03-12T19:23:09.235Z,2.00
2019-03-12T19:25:38.280Z,2.00
2019-03-12T19:28:06.308Z,2.00
2019-03-12T19:30:33.973Z,1.90
2019-03-12T19:33:03.853Z,1.90
2019-03-12T19:35:31.506Z,1.90
2019-03-12T19:37:59.013Z,2.00
2019-03-12T19:40:26.716Z,1.80
2019-03-12T19:42:54.329Z,1.70
2019-03-12T19:45:21.960Z,1.60
2019-03-12T19:47:49.506Z,1.50
2019-03-12T19:50:17.583Z,1.40
2019-03-12T19:52:45.140Z,1.40
2019-03-12T19:55:14.666Z,1.30
2019-03-12T19:57:42.423Z,1.20
2019-03-12T20:00:12.429Z,1.10
2019-03-12T20:02:40.823Z,1.00
2019-03-12T20:05:09.147Z,1.20
2019-03-12T20:07:36.834Z,0.90
2019-03-12T20:10:38.982Z,0.90
2019-03-12T20:13:43.118Z,0.80
2019-03-12T20:16:49.666Z,0.80
2019-03-12T20:20:03.962Z,0.70
2019-03-12T20:23:17.728Z,0.70
2019-03-12T20:26:26.115Z,0.60
2019-03-12T20:29:30.693Z,0.60
2019-03-12T20:32:48.341Z,0.60
2019-03-12T20:36:00.764Z,0.60
2019-03-12T20:39:11.599Z,0.80
2019-03-12T20:42:16.789Z,0.40
2019-03-12T20:45:21.031Z,0.30
2019-03-12T20:48:18.182Z,0.40
2019-03-12T20:51:49.408Z,0.40
2019-03-12T20:54:59.710Z,0.40
2019-03-12T20:58:02.247Z,0.30
2019-03-12T21:01:23.624Z,0.30
2019-03-12T21:04:34.810Z,0.30
2019-03-12T21:07:46.330Z,0.20
2019-03-12T21:10:54.516Z,0.20
2019-03-12T21:14:14.641Z,0.20
2019-03-12T21:17:20.507Z,0.10
2019-03-12T21:20:50.967Z,0.10
2019-03-12T21:23:44.582Z,0.00
2019-03-12T21:26:41.772Z,-0.10
2019-03-12T21:29:44.344Z,-0.10
2019-03-12T21:32:12.426Z,-0.10
2019-03-12T21:34:39.976Z,-0.20
2019-03-12T21:37:07.627Z,-0.10
2019-03-12T21:39:35.294Z,-0.20
2019-03-12T21:42:02.820Z,-0.20
2019-03-12T21:44:30.513Z,-0.20
2019-03-12T21:46:58.513Z,-0.10
2019-03-12T21:49:26.124Z,0.00
2019-03-12T21:51:53.670Z,-0.10
2019-03-12T21:54:21.220Z,-0.20
2019-03-12T21:56:48.740Z,0.00
2019-03-12T21:59:16.292Z,-0.20
2019-03-12T22:01:43.830Z,-0.20
2019-03-12T22:04:11.348Z,-0.10
2019-03-12T22:06:38.930Z,-0.10
2019-03-12T22:09:06.447Z,-0.10
2019-03-12T22:11:33.946Z,-0.10
2019-03-12T22:14:01.556Z,-0.10
2019-03-12T22:16:29.114Z,-0.10
2019-03-12T22:18:56.606Z,-0.10
2019-03-12T22:21:31.734Z,0.00
2019-03-12T22:24:03.438Z,-0.10
2019-03-12T22:26:30.997Z,-0.20
2019-03-12T22:28:58.846Z,-0.20
2019-03-12T22:31:26.358Z,-0.20
2019-03-12T22:33:53.864Z,-0.20
2019-03-12T22:36:21.372Z,-0.20
2019-03-12T22:38:48.892Z,-0.20
2019-03-12T22:41:16.443Z,-0.20
2019-03-12T22:43:43.961Z,-0.20
2019-03-12T22:46:11.478Z,-0.20
2019-03-12T22:48:38.992Z,-0.20
2019-03-12T22:51:06.504Z,-0.20
2019-03-12T22:53:34.042Z,-0.20
2019-03-12T22:56:01.569Z,-0.20
2019-03-12T22:58:29.062Z,-0.10
2019-03-12T23:00:56.754Z,-0.20
2019-03-12T23:03:24.270Z,-0.20
2019-03-12T23:05:51.804Z,-0.20
2019-03-12T23:08:19.395Z,-0.20
2019-03-12T23:10:47.142Z,-0.20
2019-03-12T23:13:14.712Z,-0.20
2019-03-12T23:15:42.283Z,-0.30
2019-03-12T23:18:09.836Z,-0.30
2019-03-12T23:20:37.435Z,-0.30
2019-03-12T23:23:05.004Z,-0.30
2019-03-12T23:25:32.545Z,-0.30
2019-03-12T23:28:00.080Z,-0.30
2019-03-12T23:30:28.890Z,-0.30
2019-03-12T23:32:56.755Z,-0.30
2019-03-12T23:35:24.290Z,-0.30
2019-03-12T23:37:51.837Z,-0.30
2019-03-12T23:40:19.411Z,-0.20
2019-03-12T23:42:47.008Z,-0.30
2019-03-12T23:45:15.179Z,-0.30
2019-03-12T23:47:42.817Z,-0.10
2019-03-12T23:50:11.151Z,-0.20
2019-03-12T23:52:38.843Z,-0.30
2019-03-12T23:55:06.528Z,-0.30
2019-03-12T23:57:34.041Z,-0.30
